createdAt,value
2018-08-11T00:00:05.628Z,15.72
2018-08-11T00:01:05.820Z,15.70
2018-08-11T00:02:06.009Z,15.65
2018-08-11T00:03:06.196Z,15.72
2018-08-11T00:04:06.369Z,15.61
2018-08-11T00:05:06.547Z,15.65
2018-08-11T00:06:06.722Z,15.61
2018-08-11T00:07:06.899Z,15.62
2018-08-11T00:08:07.086Z,15.44
2018-08-11T00:09:07.266Z,15.55
2018-08-11T00:10:07.436Z,15.58
2018-08-11T00:11:07.614Z,15.64
2018-08-11T00:12:07.785Z,15.57
2018-08-11T00:13:07.965Z,15.51
2018-08-11T00:14:08.141Z,15.43
2018-08-11T00:15:08.320Z,15.46
2018-08-11T00:16:08.503Z,15.37
2018-08-11T00:17:08.672Z,15.46
2018-08-11T00:18:08.846Z,15.40
2018-08-11T00:19:09.022Z,15.40
2018-08-11T00:20:09.203Z,15.43
2018-08-11T00:21:09.382Z,15.51
2018-08-11T00:22:09.557Z,15.47
2018-08-11T00:23:09.732Z,15.49
2018-08-11T00:24:09.905Z,15.65
2018-08-11T00:25:10.083Z,15.59
2018-08-11T00:26:10.260Z,15.62
2018-08-11T00:27:10.439Z,15.55
2018-08-11T00:28:10.609Z,15.52
2018-08-11T00:29:10.786Z,15.54
2018-08-11T00:30:10.963Z,15.49
2018-08-11T00:31:11.146Z,15.59
2018-08-11T00:32:11.323Z,15.68
2018-08-11T00:33:11.500Z,15.62
2018-08-11T00:34:11.671Z,15.65
2018-08-11T00:35:11.853Z,15.59
2018-08-11T00:36:12.026Z,15.55
2018-08-11T00:37:12.195Z,15.54
2018-08-11T00:38:12.371Z,15.49
2018-08-11T00:39:12.544Z,15.47
2018-08-11T00:40:12.717Z,15.58
2018-08-11T00:41:12.884Z,15.61
2018-08-11T00:42:13.075Z,15.67
2018-08-11T00:43:13.265Z,15.73
2018-08-11T00:44:13.434Z,15.67
2018-08-11T00:45:13.629Z,15.68
2018-08-11T00:46:13.796Z,15.68
2018-08-11T00:47:13.970Z,15.59
2018-08-11T00:48:14.166Z,15.64
2018-08-11T00:49:14.363Z,15.79
2018-08-11T00:50:14.540Z,15.54
2018-08-11T00:51:14.712Z,15.64
2018-08-11T00:52:14.905Z,15.59
2018-08-11T00:53:15.076Z,15.67
2018-08-11T00:54:15.249Z,15.64
2018-08-11T00:55:15.434Z,15.61
2018-08-11T00:56:15.597Z,15.55
2018-08-11T00:57:15.779Z,15.54
2018-08-11T00:58:15.978Z,15.47
2018-08-11T00:59:16.140Z,15.39
2018-08-11T01:00:16.321Z,15.25
2018-08-11T01:01:16.486Z,15.36
2018-08-11T01:02:16.667Z,15.33
2018-08-11T01:03:16.843Z,15.19
2018-08-11T01:04:17.036Z,15.14
2018-08-11T01:05:17.182Z,15.15
2018-08-11T01:06:17.355Z,15.27
2018-08-11T01:07:18.739Z,15.21
2018-08-11T01:08:19.360Z,15.21
2018-08-11T01:09:17.887Z,15.21
2018-08-11T01:10:18.058Z,15.07
2018-08-11T01:11:18.238Z,15.04
2018-08-11T01:12:18.410Z,14.99
2018-08-11T01:13:18.596Z,15.06
2018-08-11T01:14:18.766Z,14.99
2018-08-11T01:15:18.942Z,14.78
2018-08-11T01:16:19.123Z,14.79
2018-08-11T01:17:19.296Z,14.62
2018-08-11T01:18:19.477Z,14.60
2018-08-11T01:19:19.645Z,14.82
2018-08-11T01:20:19.816Z,14.88
2018-08-11T01:21:19.991Z,14.79
2018-08-11T01:22:20.186Z,14.84
2018-08-11T01:23:20.372Z,14.66
2018-08-11T01:24:20.543Z,14.84
2018-08-11T01:25:20.721Z,14.84
2018-08-11T01:26:20.899Z,14.70
2018-08-11T01:27:21.071Z,14.60
2018-08-11T01:28:21.242Z,14.70
2018-08-11T01:29:21.420Z,14.78
2018-08-11T01:30:21.602Z,14.58
2018-08-11T01:31:21.770Z,14.59
2018-08-11T01:32:21.942Z,14.60
2018-08-11T01:33:22.109Z,14.58
2018-08-11T01:34:22.286Z,14.51
2018-08-11T01:35:22.457Z,14.54
2018-08-11T01:36:22.636Z,14.50
2018-08-11T01:37:22.827Z,14.51
2018-08-11T01:38:23.000Z,14.47
2018-08-11T01:39:23.173Z,14.62
2018-08-11T01:40:23.347Z,14.53
2018-08-11T01:41:23.516Z,14.43
2018-08-11T01:42:23.683Z,14.44
2018-08-11T01:43:23.856Z,14.54
2018-08-11T01:44:24.124Z,14.54
2018-08-11T01:45:24.199Z,14.53
2018-08-11T01:46:24.379Z,14.47
2018-08-11T01:47:24.558Z,14.51
2018-08-11T01:48:24.730Z,14.50
2018-08-11T01:49:24.897Z,14.45
2018-08-11T01:50:25.073Z,14.41
2018-08-11T01:51:25.247Z,14.47
2018-08-11T01:52:25.431Z,14.44
2018-08-11T01:53:25.610Z,14.53
2018-08-11T01:54:25.781Z,14.35
2018-08-11T01:55:25.960Z,14.40
2018-08-11T01:56:26.134Z,14.43
2018-08-11T01:57:26.304Z,14.51
2018-08-11T01:58:26.482Z,14.50
2018-08-11T01:59:26.660Z,14.51
2018-08-11T02:00:26.836Z,14.51
2018-08-11T02:01:27.024Z,14.44
2018-08-11T02:02:27.197Z,14.35
2018-08-11T02:03:27.370Z,14.40
2018-08-11T02:04:27.539Z,14.10
2018-08-11T02:05:27.708Z,14.17
2018-08-11T02:06:27.882Z,14.32
2018-08-11T02:07:28.049Z,14.25
2018-08-11T02:08:28.228Z,14.26
2018-08-11T02:09:28.403Z,14.28
2018-08-11T02:10:28.581Z,14.25
2018-08-11T02:11:28.753Z,14.32
2018-08-11T02:12:28.921Z,14.40
2018-08-11T02:13:29.097Z,14.28
2018-08-11T02:14:29.272Z,14.23
2018-08-11T02:15:29.444Z,14.25
2018-08-11T02:16:29.620Z,14.20
2018-08-11T02:17:29.797Z,14.20
2018-08-11T02:18:29.964Z,14.10
2018-08-11T02:19:30.146Z,14.23
2018-08-11T02:20:30.325Z,14.18
2018-08-11T02:21:30.494Z,14.15
2018-08-11T02:22:30.671Z,14.04
2018-08-11T02:23:30.841Z,14.12
2018-08-11T02:24:31.015Z,14.10
2018-08-11T02:25:31.184Z,14.08
2018-08-11T02:26:31.356Z,14.08
2018-08-11T02:27:31.529Z,14.12
2018-08-11T02:28:31.705Z,14.07
2018-08-11T02:29:31.875Z,14.18
2018-08-11T02:30:32.041Z,14.23
2018-08-11T02:31:32.230Z,14.22
2018-08-11T02:32:32.411Z,14.26
2018-08-11T02:33:32.585Z,14.32
2018-08-11T02:34:32.758Z,14.37
2018-08-11T02:35:32.933Z,14.37
2018-08-11T02:36:33.104Z,14.48
2018-08-11T02:37:33.267Z,14.47
2018-08-11T02:38:33.449Z,14.45
2018-08-11T02:39:33.608Z,14.48
2018-08-11T02:40:33.781Z,14.44
2018-08-11T02:41:33.953Z,14.48
2018-08-11T02:42:34.138Z,14.54
2018-08-11T02:43:34.332Z,14.40
2018-08-11T02:44:34.529Z,14.48
2018-08-11T02:45:34.710Z,14.54
2018-08-11T02:46:34.878Z,14.48
2018-08-11T02:47:35.059Z,14.36
2018-08-11T02:48:35.241Z,14.44
2018-08-11T02:49:35.419Z,14.35
2018-08-11T02:50:35.600Z,14.44
2018-08-11T02:51:35.775Z,14.54
2018-08-11T02:52:35.953Z,14.48
2018-08-11T02:53:36.136Z,14.36
2018-08-11T02:54:36.328Z,14.30
2018-08-11T02:55:36.496Z,14.45
2018-08-11T02:56:36.662Z,14.40
2018-08-11T02:57:36.839Z,14.32
2018-08-11T02:58:37.012Z,14.32
2018-08-11T02:59:37.183Z,14.41
2018-08-11T03:00:37.354Z,14.40
2018-08-11T03:01:37.534Z,14.48
2018-08-11T03:02:37.883Z,14.37
2018-08-11T03:03:37.898Z,14.48
2018-08-11T03:04:38.069Z,14.47
2018-08-11T03:05:38.253Z,14.47
2018-08-11T03:06:38.424Z,14.45
2018-08-11T03:07:38.597Z,14.44
2018-08-11T03:08:38.781Z,14.43
2018-08-11T03:09:38.975Z,14.48
2018-08-11T03:10:39.148Z,14.43
2018-08-11T03:11:39.325Z,14.50
2018-08-11T03:12:39.496Z,14.47
2018-08-11T03:13:39.672Z,14.47
2018-08-11T03:14:39.854Z,14.50
2018-08-11T03:15:40.037Z,14.53
2018-08-11T03:16:40.227Z,14.45
2018-08-11T03:17:40.419Z,14.53
2018-08-11T03:18:40.578Z,14.51
2018-08-11T03:19:40.759Z,14.51
2018-08-11T03:20:40.936Z,14.50
2018-08-11T03:21:41.120Z,14.53
2018-08-11T03:22:41.300Z,14.55
2018-08-11T03:23:41.511Z,14.62
2018-08-11T03:24:41.673Z,14.58
2018-08-11T03:25:41.845Z,14.72
2018-08-11T03:26:42.012Z,14.77
2018-08-11T03:27:42.195Z,14.70
2018-08-11T03:28:42.367Z,14.78
2018-08-11T03:29:42.546Z,14.77
2018-08-11T03:30:42.737Z,14.84
2018-08-11T03:31:42.910Z,14.92
2018-08-11T03:32:43.085Z,14.88
2018-08-11T03:33:43.254Z,14.99
2018-08-11T03:34:43.434Z,14.91
2018-08-11T03:35:43.605Z,14.92
2018-08-11T03:36:43.792Z,14.94
2018-08-11T03:37:43.974Z,14.97
2018-08-11T03:38:44.145Z,14.97
2018-08-11T03:39:44.320Z,15.03
2018-08-11T03:40:44.487Z,15.02
2018-08-11T03:41:44.666Z,14.92
2018-08-11T03:42:44.844Z,14.89
2018-08-11T03:43:45.019Z,15.00
2018-08-11T03:44:45.206Z,15.00
2018-08-11T03:45:45.377Z,15.00
2018-08-11T03:46:45.554Z,15.07
2018-08-11T03:47:45.736Z,15.07
2018-08-11T03:48:45.925Z,15.07
2018-08-11T03:49:46.098Z,15.14
2018-08-11T03:50:46.283Z,15.07
2018-08-11T03:51:46.464Z,15.02
2018-08-11T03:52:46.647Z,14.94
2018-08-11T03:53:46.824Z,14.94
2018-08-11T03:54:47.002Z,15.00
2018-08-11T03:55:47.177Z,15.09
2018-08-11T03:56:47.344Z,15.06
2018-08-11T03:57:47.519Z,15.02
2018-08-11T03:58:47.695Z,14.97
2018-08-11T03:59:47.859Z,14.97
2018-08-11T04:00:48.043Z,15.07
2018-08-11T04:01:48.216Z,14.99
2018-08-11T04:02:48.400Z,15.14
2018-08-11T04:03:48.573Z,15.03
2018-08-11T04:04:48.751Z,14.99
2018-08-11T04:05:48.933Z,14.94
2018-08-11T04:06:49.110Z,15.04
2018-08-11T04:07:49.283Z,15.09
2018-08-11T04:08:49.460Z,15.07
2018-08-11T04:09:49.639Z,15.03
2018-08-11T04:10:49.812Z,14.97
2018-08-11T04:11:49.980Z,15.02
2018-08-11T04:12:50.153Z,15.14
2018-08-11T04:13:50.331Z,15.10
2018-08-11T04:14:50.504Z,15.06
2018-08-11T04:15:50.677Z,15.06
2018-08-11T04:16:50.850Z,15.03
2018-08-11T04:17:51.015Z,14.99
2018-08-11T04:18:51.192Z,14.94
2018-08-11T04:19:51.364Z,15.11
2018-08-11T04:20:51.541Z,15.14
2018-08-11T04:21:51.714Z,15.18
2018-08-11T04:22:51.889Z,15.24
2018-08-11T04:23:52.061Z,15.27
2018-08-11T04:24:52.232Z,15.18
2018-08-11T04:25:52.403Z,15.18
2018-08-11T04:26:52.570Z,15.29
2018-08-11T04:27:52.748Z,15.27
2018-08-11T04:28:52.945Z,15.19
2018-08-11T04:29:53.142Z,15.25
2018-08-11T04:30:53.311Z,15.19
2018-08-11T04:31:53.488Z,15.35
2018-08-11T04:32:53.665Z,15.25
2018-08-11T04:33:53.851Z,15.19
2018-08-11T04:34:54.024Z,15.22
2018-08-11T04:35:54.197Z,15.10
2018-08-11T04:36:54.376Z,15.17
2018-08-11T04:37:54.555Z,15.17
2018-08-11T04:38:54.722Z,15.09
2018-08-11T04:39:54.897Z,15.15
2018-08-11T04:40:55.062Z,15.06
2018-08-11T04:41:55.270Z,15.07
2018-08-11T04:42:55.416Z,15.06
2018-08-11T04:43:55.584Z,15.11
2018-08-11T04:44:55.761Z,15.15
2018-08-11T04:45:55.937Z,15.28
2018-08-11T04:46:56.177Z,15.22
2018-08-11T04:47:56.240Z,15.17
2018-08-11T04:48:56.415Z,15.22
2018-08-11T04:49:56.576Z,15.17
2018-08-11T04:50:56.752Z,15.19
2018-08-11T04:51:56.922Z,15.21
2018-08-11T04:52:57.098Z,15.29
2018-08-11T04:53:57.277Z,15.17
2018-08-11T04:54:57.448Z,15.21
2018-08-11T04:55:57.624Z,15.25
2018-08-11T04:56:57.812Z,15.29
2018-08-11T04:57:57.992Z,15.31
2018-08-11T04:58:58.258Z,15.39
2018-08-11T04:59:58.285Z,15.42
2018-08-11T05:00:58.456Z,15.42
2018-08-11T05:02:01.959Z,15.46
2018-08-11T05:03:05.391Z,15.47
2018-08-11T05:03:59.865Z,15.61
2018-08-11T05:04:59.035Z,15.58
2018-08-11T05:05:59.211Z,15.68
2018-08-11T05:06:59.392Z,15.61
2018-08-11T05:07:59.581Z,15.68
2018-08-11T05:08:59.760Z,15.65
2018-08-11T05:09:59.938Z,15.64
2018-08-11T05:11:00.112Z,15.61
2018-08-11T05:12:00.293Z,15.64
2018-08-11T05:13:00.461Z,15.64
2018-08-11T05:14:00.638Z,15.64
2018-08-11T05:15:00.807Z,15.59
2018-08-11T05:16:00.981Z,15.65
2018-08-11T05:17:01.157Z,15.59
2018-08-11T05:18:02.663Z,15.64
2018-08-11T05:19:01.530Z,15.70
2018-08-11T05:20:01.795Z,15.55
2018-08-11T05:21:01.883Z,15.70
2018-08-11T05:22:02.121Z,15.67
2018-08-11T05:23:02.282Z,15.67
2018-08-11T05:24:02.474Z,15.77
2018-08-11T05:25:02.642Z,15.72
2018-08-11T05:26:02.840Z,15.68
2018-08-11T05:27:03.039Z,15.67
2018-08-11T05:28:03.201Z,15.70
2018-08-11T05:29:03.388Z,15.77
2018-08-11T05:30:03.644Z,15.83
2018-08-11T05:31:03.741Z,15.90
2018-08-11T05:32:03.921Z,15.92
2018-08-11T05:33:04.118Z,16.00
2018-08-11T05:34:04.280Z,15.92
2018-08-11T05:35:04.450Z,16.04
2018-08-11T05:36:04.627Z,16.09
2018-08-11T05:37:04.811Z,16.15
2018-08-11T05:38:04.986Z,16.23
2018-08-11T05:39:05.173Z,16.29
2018-08-11T05:40:05.355Z,16.31
2018-08-11T05:41:05.536Z,16.29
2018-08-11T05:42:05.903Z,16.35
2018-08-11T05:43:05.891Z,16.31
2018-08-11T05:44:06.238Z,16.29
2018-08-11T05:45:06.170Z,16.39
2018-08-11T05:46:06.356Z,16.39
2018-08-11T05:47:06.553Z,16.43
2018-08-11T05:48:06.740Z,16.42
2018-08-11T05:49:06.915Z,16.57
2018-08-11T05:50:07.104Z,16.71
2018-08-11T05:51:07.291Z,16.58
2018-08-11T05:52:07.474Z,16.66
2018-08-11T05:53:07.652Z,16.56
2018-08-11T05:54:07.835Z,16.57
2018-08-11T05:55:08.033Z,16.57
2018-08-11T05:56:08.200Z,16.66
2018-08-11T05:57:08.380Z,16.68
2018-08-11T05:58:08.565Z,16.76
2018-08-11T05:59:08.741Z,16.87
2018-08-11T06:00:08.908Z,16.96
2018-08-11T06:01:09.087Z,16.97
2018-08-11T06:02:09.309Z,16.97
2018-08-11T06:03:09.438Z,17.04
2018-08-11T06:04:09.624Z,17.22
2018-08-11T06:05:09.802Z,17.27
2018-08-11T06:06:10.327Z,17.39
2018-08-11T06:07:10.224Z,17.41
2018-08-11T06:08:10.348Z,17.44
2018-08-11T06:09:10.640Z,17.36
2018-08-11T06:10:10.647Z,17.39
2018-08-11T06:11:10.829Z,17.44
2018-08-11T06:12:11.271Z,17.45
2018-08-11T06:13:11.493Z,17.39
2018-08-11T06:14:11.363Z,17.56
2018-08-11T06:15:11.709Z,17.57
2018-08-11T06:16:11.763Z,17.67
2018-08-11T06:17:11.982Z,17.85
2018-08-11T06:18:12.169Z,17.95
2018-08-11T06:19:16.963Z,17.95
2018-08-11T06:20:15.654Z,18.04
2018-08-11T06:21:16.166Z,18.23
2018-08-11T06:22:14.294Z,18.34
2018-08-11T06:23:16.251Z,18.23
2018-08-11T06:24:16.238Z,18.52
2018-08-11T06:25:13.191Z,18.58
2018-08-11T06:26:14.772Z,18.73
2018-08-11T06:27:13.728Z,18.75
2018-08-11T06:28:13.941Z,18.81
2018-08-11T06:29:17.249Z,18.95
2018-08-11T06:30:17.241Z,19.02
2018-08-11T06:31:15.602Z,18.92
2018-08-11T06:32:17.263Z,18.99
2018-08-11T06:33:14.979Z,18.86
2018-08-11T06:34:15.317Z,18.96
2018-08-11T06:35:16.336Z,18.99
2018-08-11T06:36:16.295Z,19.08
2018-08-11T06:37:18.950Z,18.92
2018-08-11T06:38:15.474Z,19.07
2018-08-11T06:39:19.152Z,19.16
2018-08-11T06:40:17.664Z,19.22
2018-08-11T06:41:17.661Z,19.34
2018-08-11T06:42:17.226Z,19.26
2018-08-11T06:43:16.739Z,19.44
2018-08-11T06:44:16.625Z,19.56
2018-08-11T06:45:16.693Z,19.62
2018-08-11T06:46:16.840Z,19.82
2018-08-11T06:47:16.873Z,19.69
2018-08-11T06:48:16.921Z,19.79
2018-08-11T06:49:17.052Z,19.81
2018-08-11T06:50:17.537Z,19.89
2018-08-11T06:51:17.663Z,20.04
2018-08-11T06:52:17.707Z,19.99
2018-08-11T06:53:18.023Z,20.03
2018-08-11T06:54:18.103Z,20.00
2018-08-11T06:55:18.177Z,20.11
2018-08-11T06:56:18.318Z,20.03
2018-08-11T06:57:18.372Z,19.95
2018-08-11T06:58:18.974Z,19.81
2018-08-11T06:59:19.027Z,19.79
2018-08-11T07:00:19.059Z,19.77
2018-08-11T07:01:19.300Z,19.79
2018-08-11T07:02:19.316Z,19.81
2018-08-11T07:03:19.772Z,19.76
2018-08-11T07:04:19.884Z,19.76
2018-08-11T07:05:19.960Z,19.79
2018-08-11T07:06:20.148Z,19.79
2018-08-11T07:07:20.353Z,19.73
2018-08-11T07:08:20.223Z,19.81
2018-08-11T07:09:20.415Z,19.84
2018-08-11T07:10:20.698Z,19.74
2018-08-11T07:11:21.633Z,19.84
2018-08-11T07:12:20.906Z,19.67
2018-08-11T07:13:21.327Z,19.82
2018-08-11T07:14:21.190Z,19.85
2018-08-11T07:15:21.464Z,19.86
2018-08-11T07:16:21.561Z,19.85
2018-08-11T07:17:21.918Z,20.02
2018-08-11T07:18:22.130Z,20.11
2018-08-11T07:19:22.215Z,20.39
2018-08-11T07:20:22.341Z,20.60
2018-08-11T07:21:22.399Z,20.95
2018-08-11T07:22:22.598Z,21.03
2018-08-11T07:23:23.533Z,21.22
2018-08-11T07:24:22.986Z,22.13
2018-08-11T07:25:23.667Z,23.03
2018-08-11T07:26:23.234Z,23.32
2018-08-11T07:27:23.437Z,23.58
2018-08-11T07:28:23.628Z,24.17
2018-08-11T07:29:23.836Z,24.61
2018-08-11T07:30:24.026Z,25.29
2018-08-11T07:31:24.227Z,25.75
2018-08-11T07:32:25.503Z,26.34
2018-08-11T07:33:24.648Z,26.84
2018-08-11T07:34:24.792Z,26.95
2018-08-11T07:35:24.931Z,26.44
2018-08-11T07:36:25.530Z,26.36
2018-08-11T07:37:25.223Z,26.56
2018-08-11T07:38:25.551Z,26.78
2018-08-11T07:39:25.793Z,26.59
2018-08-11T07:40:26.311Z,27.10
2018-08-11T07:41:26.240Z,27.07
2018-08-11T07:42:26.406Z,26.56
2018-08-11T07:43:26.640Z,26.33
2018-08-11T07:44:27.593Z,26.47
2018-08-11T07:45:27.172Z,26.74
2018-08-11T07:46:27.035Z,26.97
2018-08-11T07:47:27.609Z,27.47
2018-08-11T07:48:27.834Z,27.80
2018-08-11T07:49:27.777Z,28.11
2018-08-11T07:50:28.514Z,28.37
2018-08-11T07:51:28.209Z,28.74
2018-08-11T07:52:28.056Z,28.79
2018-08-11T07:53:28.278Z,28.62
2018-08-11T07:54:28.463Z,28.93
2018-08-11T07:55:29.102Z,28.85
2018-08-11T07:56:28.904Z,29.16
2018-08-11T07:57:29.010Z,29.42
2018-08-11T07:58:29.196Z,29.50
2018-08-11T07:59:29.650Z,29.59
2018-08-11T08:00:29.629Z,29.50
2018-08-11T08:01:29.810Z,29.57
2018-08-11T08:02:29.779Z,29.76
2018-08-11T08:03:29.990Z,29.97
2018-08-11T08:04:30.203Z,30.03
2018-08-11T08:05:30.833Z,30.12
2018-08-11T08:06:30.871Z,29.41
2018-08-11T08:07:31.389Z,29.42
2018-08-11T08:08:30.774Z,29.50
2018-08-11T08:09:32.879Z,29.76
2018-08-11T08:10:31.369Z,29.63
2018-08-11T08:11:31.643Z,29.60
2018-08-11T08:12:31.664Z,29.73
2018-08-11T08:13:31.837Z,29.68
2018-08-11T08:14:31.872Z,29.61
2018-08-11T08:15:31.968Z,29.49
2018-08-11T08:16:32.134Z,29.22
2018-08-11T08:17:32.576Z,29.39
2018-08-11T08:18:32.782Z,28.94
2018-08-11T08:19:32.686Z,29.13
2018-08-11T08:20:33.560Z,29.27
2018-08-11T08:21:33.053Z,29.54
2018-08-11T08:22:33.299Z,29.69
2018-08-11T08:23:34.482Z,29.84
2018-08-11T08:24:33.667Z,29.94
2018-08-11T08:25:34.099Z,29.93
2018-08-11T08:26:34.359Z,28.69
2018-08-11T08:27:34.581Z,28.48
2018-08-11T08:28:34.799Z,28.76
2018-08-11T08:29:35.472Z,29.16
2018-08-11T08:30:34.614Z,28.97
2018-08-11T08:31:34.867Z,28.14
2018-08-11T08:32:35.204Z,27.67
2018-08-11T08:33:35.182Z,27.30
2018-08-11T08:34:35.225Z,27.63
2018-08-11T08:35:35.412Z,28.14
2018-08-11T08:36:35.817Z,28.04
2018-08-11T08:37:35.977Z,27.44
2018-08-11T08:38:36.073Z,26.92
2018-08-11T08:39:36.144Z,26.37
2018-08-11T08:40:36.716Z,25.98
2018-08-11T08:41:36.690Z,26.34
2018-08-11T08:42:36.765Z,27.29
2018-08-11T08:43:36.951Z,27.90
2018-08-11T08:44:37.143Z,28.33
2018-08-11T08:45:37.320Z,28.98
2018-08-11T08:46:39.586Z,28.94
2018-08-11T08:47:38.253Z,29.45
2018-08-11T08:48:37.894Z,28.27
2018-08-11T08:49:38.067Z,27.60
2018-08-11T08:50:39.628Z,28.00
2018-08-11T08:51:38.432Z,27.80
2018-08-11T08:52:38.631Z,28.25
2018-08-11T08:53:38.810Z,28.05
2018-08-11T08:54:39.003Z,28.30
2018-08-11T08:55:39.187Z,27.65
2018-08-11T08:56:39.383Z,27.25
2018-08-11T08:57:39.575Z,26.92
2018-08-11T08:58:39.765Z,26.89
2018-08-11T08:59:39.962Z,26.58
2018-08-11T09:00:40.307Z,26.38
2018-08-11T09:01:40.363Z,26.05
2018-08-11T09:02:40.556Z,25.80
2018-08-11T09:03:40.771Z,26.19
2018-08-11T09:04:40.957Z,25.90
2018-08-11T09:05:41.286Z,25.63
2018-08-11T09:06:41.300Z,25.43
2018-08-11T09:07:41.483Z,25.14
2018-08-11T09:08:41.703Z,25.28
2018-08-11T09:09:41.899Z,24.80
2018-08-11T09:10:42.338Z,26.48
2018-08-11T09:11:42.430Z,27.21
2018-08-11T09:12:42.393Z,28.32
2018-08-11T09:13:42.582Z,29.31
2018-08-11T09:14:42.755Z,30.24
2018-08-11T09:15:42.948Z,30.96
2018-08-11T09:16:43.136Z,29.73
2018-08-11T09:17:43.489Z,28.96
2018-08-11T09:18:45.448Z,28.44
2018-08-11T09:19:43.908Z,28.02
2018-08-11T09:20:44.541Z,27.59
2018-08-11T09:21:44.121Z,27.12
2018-08-11T09:22:44.321Z,26.84
2018-08-11T09:23:44.517Z,26.40
2018-08-11T09:24:44.958Z,26.00
2018-08-11T09:25:44.952Z,26.88
2018-08-11T09:26:45.094Z,27.93
2018-08-11T09:27:45.170Z,27.22
2018-08-11T09:28:45.369Z,26.65
2018-08-11T09:29:45.576Z,26.37
2018-08-11T09:30:45.770Z,26.66
2018-08-11T09:31:45.960Z,27.98
2018-08-11T09:32:46.147Z,28.85
2018-08-11T09:33:46.349Z,29.45
2018-08-11T09:34:46.567Z,30.39
2018-08-11T09:35:46.739Z,30.06
2018-08-11T09:36:47.175Z,30.34
2018-08-11T09:37:47.330Z,29.42
2018-08-11T09:38:47.678Z,28.78
2018-08-11T09:39:47.665Z,27.98
2018-08-11T09:40:47.747Z,27.48
2018-08-11T09:41:47.961Z,28.37
2018-08-11T09:42:48.157Z,29.56
2018-08-11T09:43:48.092Z,29.44
2018-08-11T09:44:48.296Z,29.68
2018-08-11T09:45:48.633Z,30.02
2018-08-11T09:46:48.719Z,31.17
2018-08-11T09:47:49.135Z,30.15
2018-08-11T09:48:49.120Z,29.47
2018-08-11T09:49:49.295Z,30.31
2018-08-11T09:50:49.494Z,30.27
2018-08-11T09:51:49.788Z,28.91
2018-08-11T09:52:49.885Z,28.45
2018-08-11T09:53:50.024Z,28.12
2018-08-11T09:54:50.107Z,27.77
2018-08-11T09:55:50.302Z,28.93
2018-08-11T09:56:50.528Z,29.78
2018-08-11T09:57:50.594Z,30.80
2018-08-11T09:58:50.799Z,30.78
2018-08-11T09:59:51.011Z,29.61
2018-08-11T10:00:51.187Z,29.16
2018-08-11T10:01:51.388Z,28.76
2018-08-11T10:02:51.592Z,28.01
2018-08-11T10:03:51.802Z,29.41
2018-08-11T10:04:52.062Z,29.45
2018-08-11T10:05:52.137Z,28.84
2018-08-11T10:06:52.389Z,28.04
2018-08-11T10:07:52.568Z,27.60
2018-08-11T10:08:52.790Z,28.04
2018-08-11T10:09:53.033Z,29.56
2018-08-11T10:10:53.096Z,29.60
2018-08-11T10:11:53.324Z,30.40
2018-08-11T10:12:53.391Z,31.58
2018-08-11T10:13:53.623Z,32.29
2018-08-11T10:14:53.693Z,33.19
2018-08-11T10:15:53.910Z,34.02
2018-08-11T10:16:54.104Z,34.75
2018-08-11T10:17:54.286Z,35.10
2018-08-11T10:18:54.478Z,35.34
2018-08-11T10:19:54.682Z,33.80
2018-08-11T10:20:54.899Z,32.12
2018-08-11T10:21:55.011Z,31.87
2018-08-11T10:22:55.204Z,30.96
2018-08-11T10:23:55.399Z,30.02
2018-08-11T10:24:55.592Z,29.44
2018-08-11T10:25:55.805Z,29.10
2018-08-11T10:26:56.028Z,28.66
2018-08-11T10:27:56.215Z,28.23
2018-08-11T10:28:56.426Z,27.96
2018-08-11T10:29:56.606Z,27.49
2018-08-11T10:30:56.792Z,26.99
2018-08-11T10:31:57.055Z,26.74
2018-08-11T10:32:57.109Z,26.48
2018-08-11T10:33:57.298Z,26.99
2018-08-11T10:34:57.499Z,27.15
2018-08-11T10:35:57.678Z,27.71
2018-08-11T10:36:57.905Z,27.37
2018-08-11T10:37:58.082Z,26.74
2018-08-11T10:38:58.270Z,26.28
2018-08-11T10:39:58.477Z,26.10
2018-08-11T10:40:58.640Z,26.45
2018-08-11T10:41:58.821Z,27.40
2018-08-11T10:42:59.004Z,28.60
2018-08-11T10:43:59.191Z,29.51
2018-08-11T10:44:59.370Z,30.59
2018-08-11T10:45:59.706Z,31.25
2018-08-11T10:46:59.738Z,32.11
2018-08-11T10:47:59.880Z,32.63
2018-08-11T10:49:00.078Z,32.82
2018-08-11T10:50:00.259Z,33.19
2018-08-11T10:51:00.463Z,33.73
2018-08-11T10:52:00.647Z,34.05
2018-08-11T10:53:00.949Z,34.60
2018-08-11T10:54:01.007Z,34.27
2018-08-11T10:55:01.194Z,34.58
2018-08-11T10:56:01.410Z,35.00
2018-08-11T10:57:01.565Z,34.86
2018-08-11T10:58:01.748Z,34.50
2018-08-11T10:59:01.936Z,34.64
2018-08-11T11:00:02.133Z,34.42
2018-08-11T11:01:02.455Z,33.77
2018-08-11T11:02:02.521Z,32.52
2018-08-11T11:03:02.893Z,31.84
2018-08-11T11:04:02.842Z,31.14
2018-08-11T11:05:03.032Z,30.87
2018-08-11T11:06:03.208Z,32.27
2018-08-11T11:07:03.391Z,33.07
2018-08-11T11:08:03.593Z,33.80
2018-08-11T11:09:03.771Z,32.96
2018-08-11T11:10:03.952Z,32.29
2018-08-11T11:11:04.140Z,31.76
2018-08-11T11:12:04.325Z,31.37
2018-08-11T11:13:04.516Z,31.85
2018-08-11T11:14:04.712Z,32.51
2018-08-11T11:15:04.893Z,32.93
2018-08-11T11:16:05.083Z,33.59
2018-08-11T11:17:05.280Z,34.21
2018-08-11T11:18:05.461Z,34.64
2018-08-11T11:19:06.131Z,35.00
2018-08-11T11:20:05.835Z,35.04
2018-08-11T11:21:06.023Z,35.24
2018-08-11T11:22:06.211Z,35.36
2018-08-11T11:23:06.411Z,35.49
2018-08-11T11:24:06.597Z,35.53
2018-08-11T11:25:06.779Z,35.97
2018-08-11T11:26:08.703Z,35.88
2018-08-11T11:27:08.727Z,35.46
2018-08-11T11:28:09.479Z,35.66
2018-08-11T11:29:09.601Z,35.36
2018-08-11T11:30:09.121Z,35.17
2018-08-11T11:31:09.634Z,35.23
2018-08-11T11:32:09.646Z,34.66
2018-08-11T11:33:09.770Z,34.89
2018-08-11T11:34:11.725Z,34.51
2018-08-11T11:35:08.789Z,34.54
2018-08-11T11:36:11.670Z,33.96
2018-08-11T11:37:08.990Z,34.24
2018-08-11T11:38:11.759Z,34.70
2018-08-11T11:39:10.022Z,34.32
2018-08-11T11:40:11.980Z,33.98
2018-08-11T11:41:09.659Z,34.11
2018-08-11T11:42:09.832Z,34.35
2018-08-11T11:43:12.335Z,34.32
2018-08-11T11:44:11.078Z,34.25
2018-08-11T11:45:10.364Z,33.02
2018-08-11T11:46:10.555Z,32.12
2018-08-11T11:47:10.738Z,31.96
2018-08-11T11:48:10.965Z,32.53
2018-08-11T11:49:11.165Z,32.87
2018-08-11T11:50:11.349Z,32.56
2018-08-11T11:51:11.538Z,31.90
2018-08-11T11:52:11.732Z,31.43
2018-08-11T11:53:11.914Z,30.83
2018-08-11T11:54:12.112Z,30.55
2018-08-11T11:55:13.537Z,29.90
2018-08-11T11:56:12.432Z,29.93
2018-08-11T11:57:12.625Z,30.15
2018-08-11T11:58:12.812Z,30.23
2018-08-11T11:59:15.016Z,29.61
2018-08-11T12:00:16.734Z,29.60
2018-08-11T12:01:17.615Z,29.56
2018-08-11T12:02:16.077Z,29.02
2018-08-11T12:03:13.621Z,28.84
2018-08-11T12:04:13.810Z,28.52
2018-08-11T12:05:14.083Z,27.89
2018-08-11T12:06:14.140Z,27.74
2018-08-11T12:07:14.327Z,28.04
2018-08-11T12:08:15.379Z,28.10
2018-08-11T12:09:14.749Z,28.26
2018-08-11T12:10:14.923Z,28.25
2018-08-11T12:11:15.108Z,28.19
2018-08-11T12:12:15.297Z,28.20
2018-08-11T12:13:15.617Z,27.78
2018-08-11T12:14:15.691Z,27.64
2018-08-11T12:15:15.870Z,27.68
2018-08-11T12:16:16.052Z,27.87
2018-08-11T12:17:16.238Z,27.96
2018-08-11T12:18:16.429Z,27.93
2018-08-11T12:19:16.607Z,27.95
2018-08-11T12:20:16.782Z,28.02
2018-08-11T12:21:16.968Z,28.17
2018-08-11T12:22:18.241Z,28.01
2018-08-11T12:23:17.420Z,28.10
2018-08-11T12:24:17.488Z,28.25
2018-08-11T12:25:17.677Z,28.11
2018-08-11T12:26:17.874Z,28.08
2018-08-11T12:27:18.070Z,28.04
2018-08-11T12:28:18.413Z,27.86
2018-08-11T12:29:18.654Z,27.82
2018-08-11T12:30:18.619Z,27.71
2018-08-11T12:31:18.992Z,27.71
2018-08-11T12:32:21.356Z,27.68
2018-08-11T12:33:19.075Z,27.51
2018-08-11T12:34:19.262Z,27.55
2018-08-11T12:35:19.455Z,27.47
2018-08-11T12:36:19.634Z,27.42
2018-08-11T12:37:19.831Z,27.32
2018-08-11T12:38:20.048Z,27.12
2018-08-11T12:39:20.207Z,26.99
2018-08-11T12:40:20.388Z,26.78
2018-08-11T12:41:20.603Z,26.70
2018-08-11T12:42:20.772Z,26.68
2018-08-11T12:43:20.968Z,26.70
2018-08-11T12:44:21.134Z,26.73
2018-08-11T12:45:21.407Z,26.71
2018-08-11T12:46:21.588Z,26.70
2018-08-11T12:47:21.647Z,26.81
2018-08-11T12:48:21.866Z,26.84
2018-08-11T12:49:22.051Z,26.78
2018-08-11T12:50:22.249Z,26.89
2018-08-11T12:51:22.437Z,27.08
2018-08-11T12:52:22.626Z,27.14
2018-08-11T12:53:22.824Z,26.96
2018-08-11T12:54:23.014Z,26.95